sensor_id;sensor_type;location;lat;lon;timestamp;P1;durP1;ratioP1;P2;durP2;ratioP2
6693;SDS011;3384;42.628;23.380;2023-03-23T00:01:01;33.63;;;18.13;;
6693;SDS011;3384;42.628;23.380;2023-03-23T00:03:28;32.50;;;17.87;;
6693;SDS011;3384;42.628;23.380;2023-03-23T00:05:56;21.83;;;15.63;;
6693;SDS011;3384;42.628;23.380;2023-03-23T00:08:24;19.57;;;14.80;;
6693;SDS011;3384;42.628;23.380;2023-03-23T00:10:52;22.57;;;15.20;;
6693;SDS011;3384;42.628;23.380;2023-03-23T00:13:21;22.20;;;16.30;;
6693;SDS011;3384;42.628;23.380;2023-03-23T00:15:48;18.10;;;15.37;;
6693;SDS011;3384;42.628;23.380;2023-03-23T00:18:17;19.63;;;14.97;;
6693;SDS011;3384;42.628;23.380;2023-03-23T00:20:47;25.50;;;15.90;;
6693;SDS011;3384;42.628;23.380;2023-03-23T00:23:14;22.67;;;15.17;;
6693;SDS011;3384;42.628;23.380;2023-03-23T00:25:44;24.10;;;15.90;;
6693;SDS011;3384;42.628;23.380;2023-03-23T00:28:12;17.97;;;13.77;;
6693;SDS011;3384;42.628;23.380;2023-03-23T00:30:39;19.77;;;15.40;;
6693;SDS011;3384;42.628;23.380;2023-03-23T00:33:07;20.17;;;13.90;;
6693;SDS011;3384;42.628;23.380;2023-03-23T00:35:33;17.40;;;13.03;;
6693;SDS011;3384;42.628;23.380;2023-03-23T00:38:01;18.63;;;12.77;;
6693;SDS011;3384;42.628;23.380;2023-03-23T00:40:27;19.90;;;13.53;;
6693;SDS011;3384;42.628;23.380;2023-03-23T00:42:54;21.73;;;12.37;;
6693;SDS011;3384;42.628;23.380;2023-03-23T00:45:22;12.60;;;11.30;;
6693;SDS011;3384;42.628;23.380;2023-03-23T00:47:49;11.63;;;10.43;;
6693;SDS011;3384;42.628;23.380;2023-03-23T00:50:16;15.03;;;10.67;;
6693;SDS011;3384;42.628;23.380;2023-03-23T00:52:43;10.27;;;9.27;;
6693;SDS011;3384;42.628;23.380;2023-03-23T00:55:10;9.10;;;8.40;;
6693;SDS011;3384;42.628;23.380;2023-03-23T00:57:36;7.87;;;7.10;;
6693;SDS011;3384;42.628;23.380;2023-03-23T01:00:03;9.30;;;8.50;;
6693;SDS011;3384;42.628;23.380;2023-03-23T01:02:35;7.73;;;7.17;;
6693;SDS011;3384;42.628;23.380;2023-03-23T01:05:01;8.27;;;7.67;;
6693;SDS011;3384;42.628;23.380;2023-03-23T01:07:28;7.57;;;7.13;;
6693;SDS011;3384;42.628;23.380;2023-03-23T01:09:56;8.40;;;7.80;;
6693;SDS011;3384;42.628;23.380;2023-03-23T01:12:22;7.70;;;7.10;;
6693;SDS011;3384;42.628;23.380;2023-03-23T01:14:49;8.40;;;7.63;;
6693;SDS011;3384;42.628;23.380;2023-03-23T01:17:16;11.53;;;9.43;;
6693;SDS011;3384;42.628;23.380;2023-03-23T01:19:45;12.40;;;8.77;;
6693;SDS011;3384;42.628;23.380;2023-03-23T01:22:11;10.77;;;9.13;;
6693;SDS011;3384;42.628;23.380;2023-03-23T01:24:38;11.13;;;10.03;;
6693;SDS011;3384;42.628;23.380;2023-03-23T01:27:04;9.97;;;8.93;;
6693;SDS011;3384;42.628;23.380;2023-03-23T01:29:31;22.03;;;10.10;;
6693;SDS011;3384;42.628;23.380;2023-03-23T01:31:58;12.60;;;10.50;;
6693;SDS011;3384;42.628;23.380;2023-03-23T01:34:24;12.87;;;10.80;;
6693;SDS011;3384;42.628;23.380;2023-03-23T01:36:52;16.40;;;11.67;;
6693;SDS011;3384;42.628;23.380;2023-03-23T01:39:19;14.23;;;12.70;;
6693;SDS011;3384;42.628;23.380;2023-03-23T01:41:45;19.53;;;13.77;;
6693;SDS011;3384;42.628;23.380;2023-03-23T01:46:53;24.87;;;16.33;;
6693;SDS011;3384;42.628;23.380;2023-03-23T01:49:21;24.40;;;17.67;;
6693;SDS011;3384;42.628;23.380;2023-03-23T01:51:51;24.73;;;18.33;;
6693;SDS011;3384;42.628;23.380;2023-03-23T01:54:22;26.20;;;18.90;;
6693;SDS011;3384;42.628;23.380;2023-03-23T01:56:50;26.33;;;18.50;;
6693;SDS011;3384;42.628;23.380;2023-03-23T01:59:18;31.87;;;19.80;;
6693;SDS011;3384;42.628;23.380;2023-03-23T02:01:45;33.83;;;19.50;;
6693;SDS011;3384;42.628;23.380;2023-03-23T02:04:14;28.27;;;20.03;;
6693;SDS011;3384;42.628;23.380;2023-03-23T02:06:42;29.10;;;19.90;;
6693;SDS011;3384;42.628;23.380;2023-03-23T02:09:10;29.20;;;20.50;;
6693;SDS011;3384;42.628;23.380;2023-03-23T02:11:40;26.47;;;19.10;;
6693;SDS011;3384;42.628;23.380;2023-03-23T02:14:06;24.60;;;18.00;;
6693;SDS011;3384;42.628;23.380;2023-03-23T02:16:34;32.40;;;18.60;;
6693;SDS011;3384;42.628;23.380;2023-03-23T02:19:06;25.67;;;17.80;;
6693;SDS011;3384;42.628;23.380;2023-03-23T02:27:13;22.77;;;17.60;;
6693;SDS011;3384;42.628;23.380;2023-03-23T02:29:48;27.27;;;17.50;;
6693;SDS011;3384;42.628;23.380;2023-03-23T02:32:21;24.97;;;17.90;;
6693;SDS011;3384;42.628;23.380;2023-03-23T02:34:55;31.33;;;18.37;;
6693;SDS011;3384;42.628;23.380;2023-03-23T02:37:24;21.97;;;16.60;;
6693;SDS011;3384;42.628;23.380;2023-03-23T02:39:52;23.17;;;18.30;;
6693;SDS011;3384;42.628;23.380;2023-03-23T02:42:22;28.10;;;17.27;;
6693;SDS011;3384;42.628;23.380;2023-03-23T02:44:50;19.67;;;16.17;;
6693;SDS011;3384;42.628;23.380;2023-03-23T02:47:18;21.40;;;15.17;;
6693;SDS011;3384;42.628;23.380;2023-03-23T02:49:46;21.40;;;16.00;;
6693;SDS011;3384;42.628;23.380;2023-03-23T02:52:16;18.40;;;14.50;;
6693;SDS011;3384;42.628;23.380;2023-03-23T02:54:44;26.60;;;16.17;;
6693;SDS011;3384;42.628;23.380;2023-03-23T02:57:11;20.70;;;14.53;;
6693;SDS011;3384;42.628;23.380;2023-03-23T02:59:38;17.73;;;14.37;;
6693;SDS011;3384;42.628;23.380;2023-03-23T03:02:06;17.30;;;13.80;;
6693;SDS011;3384;42.628;23.380;2023-03-23T03:04:33;17.10;;;12.57;;
6693;SDS011;3384;42.628;23.380;2023-03-23T03:07:07;20.67;;;15.27;;
6693;SDS011;3384;42.628;23.380;2023-03-23T03:09:39;23.90;;;14.77;;
6693;SDS011;3384;42.628;23.380;2023-03-23T03:12:09;24.57;;;15.10;;
6693;SDS011;3384;42.628;23.380;2023-03-23T03:14:39;21.40;;;14.90;;
6693;SDS011;3384;42.628;23.380;2023-03-23T03:17:09;17.73;;;14.03;;
6693;SDS011;3384;42.628;23.380;2023-03-23T03:19:38;15.00;;;12.37;;
6693;SDS011;3384;42.628;23.380;2023-03-23T03:22:06;16.93;;;11.63;;
6693;SDS011;3384;42.628;23.380;2023-03-23T03:24:34;14.80;;;13.03;;
6693;SDS011;3384;42.628;23.380;2023-03-23T03:27:04;17.43;;;11.53;;
6693;SDS011;3384;42.628;23.380;2023-03-23T03:29:32;13.70;;;11.97;;
6693;SDS011;3384;42.628;23.380;2023-03-23T03:32:00;11.43;;;10.43;;
6693;SDS011;3384;42.628;23.380;2023-03-23T03:34:27;16.73;;;10.90;;
6693;SDS011;3384;42.628;23.380;2023-03-23T03:36:57;12.10;;;10.67;;
6693;SDS011;3384;42.628;23.380;2023-03-23T03:39:24;14.07;;;10.57;;
6693;SDS011;3384;42.628;23.380;2023-03-23T03:41:51;11.93;;;9.87;;
6693;SDS011;3384;42.628;23.380;2023-03-23T03:44:19;15.83;;;10.50;;
6693;SDS011;3384;42.628;23.380;2023-03-23T03:46:46;13.37;;;10.07;;
6693;SDS011;3384;42.628;23.380;2023-03-23T03:49:12;14.00;;;10.67;;
6693;SDS011;3384;42.628;23.380;2023-03-23T03:51:39;13.80;;;10.90;;
6693;SDS011;3384;42.628;23.380;2023-03-23T03:54:06;11.23;;;10.03;;
6693;SDS011;3384;42.628;23.380;2023-03-23T03:56:32;18.30;;;10.63;;
6693;SDS011;3384;42.628;23.380;2023-03-23T03:59:02;15.73;;;11.07;;
6693;SDS011;3384;42.628;23.380;2023-03-23T04:01:30;11.90;;;10.70;;
6693;SDS011;3384;42.628;23.380;2023-03-23T04:03:56;16.80;;;11.40;;
6693;SDS011;3384;42.628;23.380;2023-03-23T04:06:23;12.73;;;10.43;;
6693;SDS011;3384;42.628;23.380;2023-03-23T04:08:49;14.93;;;11.50;;
6693;SDS011;3384;42.628;23.380;2023-03-23T04:11:16;15.30;;;11.53;;
6693;SDS011;3384;42.628;23.380;2023-03-23T04:13:42;12.20;;;11.03;;
6693;SDS011;3384;42.628;23.380;2023-03-23T04:16:09;14.60;;;10.93;;
6693;SDS011;3384;42.628;23.380;2023-03-23T04:18:36;11.17;;;9.80;;
6693;SDS011;3384;42.628;23.380;2023-03-23T04:21:03;13.13;;;10.93;;
6693;SDS011;3384;42.628;23.380;2023-03-23T04:23:32;11.80;;;10.37;;
6693;SDS011;3384;42.628;23.380;2023-03-23T04:26:00;10.70;;;9.80;;
6693;SDS011;3384;42.628;23.380;2023-03-23T04:28:28;15.67;;;10.57;;
6693;SDS011;3384;42.628;23.380;2023-03-23T04:30:58;16.13;;;12.10;;
6693;SDS011;3384;42.628;23.380;2023-03-23T04:33:26;12.87;;;11.00;;
6693;SDS011;3384;42.628;23.380;2023-03-23T04:35:55;13.10;;;11.43;;
6693;SDS011;3384;42.628;23.380;2023-03-23T04:38:22;18.87;;;11.93;;
6693;SDS011;3384;42.628;23.380;2023-03-23T04:40:50;12.07;;;10.80;;
6693;SDS011;3384;42.628;23.380;2023-03-23T04:43:17;12.83;;;11.50;;
6693;SDS011;3384;42.628;23.380;2023-03-23T04:45:46;10.97;;;9.87;;
6693;SDS011;3384;42.628;23.380;2023-03-23T04:48:13;12.63;;;10.33;;
6693;SDS011;3384;42.628;23.380;2023-03-23T04:50:39;13.53;;;10.07;;
6693;SDS011;3384;42.628;23.380;2023-03-23T04:53:07;15.40;;;10.80;;
6693;SDS011;3384;42.628;23.380;2023-03-23T04:55:35;11.70;;;10.17;;
6693;SDS011;3384;42.628;23.380;2023-03-23T04:58:02;10.93;;;9.37;;
6693;SDS011;3384;42.628;23.380;2023-03-23T05:00:28;12.23;;;8.67;;
6693;SDS011;3384;42.628;23.380;2023-03-23T05:02:55;9.40;;;8.53;;
6693;SDS011;3384;42.628;23.380;2023-03-23T05:05:22;9.27;;;8.40;;
6693;SDS011;3384;42.628;23.380;2023-03-23T05:07:49;9.53;;;8.53;;
6693;SDS011;3384;42.628;23.380;2023-03-23T05:10:17;10.93;;;7.20;;
6693;SDS011;3384;42.628;23.380;2023-03-23T05:12:44;12.63;;;10.73;;
6693;SDS011;3384;42.628;23.380;2023-03-23T05:15:11;10.67;;;9.53;;
6693;SDS011;3384;42.628;23.380;2023-03-23T05:17:37;9.80;;;8.80;;
6693;SDS011;3384;42.628;23.380;2023-03-23T05:20:06;9.13;;;8.30;;
6693;SDS011;3384;42.628;23.380;2023-03-23T05:22:33;12.83;;;9.00;;
6693;SDS011;3384;42.628;23.380;2023-03-23T05:25:01;11.40;;;8.47;;
6693;SDS011;3384;42.628;23.380;2023-03-23T05:27:30;8.83;;;8.00;;
6693;SDS011;3384;42.628;23.380;2023-03-23T05:29:57;9.17;;;8.30;;
6693;SDS011;3384;42.628;23.380;2023-03-23T05:32:26;10.63;;;9.00;;
6693;SDS011;3384;42.628;23.380;2023-03-23T05:34:54;23.30;;;8.90;;
6693;SDS011;3384;42.628;23.380;2023-03-23T05:37:21;9.10;;;8.40;;
6693;SDS011;3384;42.628;23.380;2023-03-23T05:39:48;12.27;;;8.53;;
6693;SDS011;3384;42.628;23.380;2023-03-23T05:42:18;12.60;;;10.50;;
6693;SDS011;3384;42.628;23.380;2023-03-23T05:44:46;14.00;;;10.90;;
6693;SDS011;3384;42.628;23.380;2023-03-23T05:47:13;12.77;;;10.23;;
6693;SDS011;3384;42.628;23.380;2023-03-23T05:49:39;12.20;;;9.60;;
6693;SDS011;3384;42.628;23.380;2023-03-23T05:52:06;10.67;;;9.57;;
6693;SDS011;3384;42.628;23.380;2023-03-23T05:54:33;11.17;;;10.00;;
6693;SDS011;3384;42.628;23.380;2023-03-23T05:56:59;11.00;;;9.67;;
6693;SDS011;3384;42.628;23.380;2023-03-23T05:59:26;9.73;;;8.33;;
6693;SDS011;3384;42.628;23.380;2023-03-23T06:01:54;8.83;;;8.10;;
6693;SDS011;3384;42.628;23.380;2023-03-23T06:04:20;11.93;;;10.87;;
6693;SDS011;3384;42.628;23.380;2023-03-23T06:06:50;11.37;;;9.80;;
6693;SDS011;3384;42.628;23.380;2023-03-23T06:09:16;12.23;;;9.60;;
6693;SDS011;3384;42.628;23.380;2023-03-23T06:11:43;11.10;;;10.20;;
6693;SDS011;3384;42.628;23.380;2023-03-23T06:14:09;12.93;;;10.43;;
6693;SDS011;3384;42.628;23.380;2023-03-23T06:16:37;11.90;;;10.70;;
6693;SDS011;3384;42.628;23.380;2023-03-23T06:19:04;14.60;;;11.37;;
6693;SDS011;3384;42.628;23.380;2023-03-23T06:21:31;10.83;;;9.83;;
6693;SDS011;3384;42.628;23.380;2023-03-23T06:23:58;11.50;;;10.37;;
6693;SDS011;3384;42.628;23.380;2023-03-23T06:26:26;12.40;;;10.40;;
6693;SDS011;3384;42.628;23.380;2023-03-23T06:28:53;16.93;;;11.60;;
6693;SDS011;3384;42.628;23.380;2023-03-23T06:31:20;11.97;;;9.70;;
6693;SDS011;3384;42.628;23.380;2023-03-23T06:33:46;11.20;;;10.30;;
6693;SDS011;3384;42.628;23.380;2023-03-23T06:36:14;18.30;;;10.13;;
6693;SDS011;3384;42.628;23.380;2023-03-23T06:38:41;11.70;;;10.67;;
6693;SDS011;3384;42.628;23.380;2023-03-23T06:41:08;13.10;;;11.70;;
6693;SDS011;3384;42.628;23.380;2023-03-23T06:43:34;17.03;;;13.27;;
6693;SDS011;3384;42.628;23.380;2023-03-23T06:46:04;15.13;;;11.63;;
6693;SDS011;3384;42.628;23.380;2023-03-23T06:48:30;19.30;;;9.93;;
6693;SDS011;3384;42.628;23.380;2023-03-23T06:50:57;11.40;;;10.30;;
6693;SDS011;3384;42.628;23.380;2023-03-23T06:53:25;19.20;;;10.67;;
6693;SDS011;3384;42.628;23.380;2023-03-23T06:55:51;11.33;;;10.13;;
6693;SDS011;3384;42.628;23.380;2023-03-23T06:58:18;24.33;;;9.80;;
6693;SDS011;3384;42.628;23.380;2023-03-23T07:00:44;16.93;;;12.87;;
6693;SDS011;3384;42.628;23.380;2023-03-23T07:03:11;19.73;;;15.50;;
6693;SDS011;3384;42.628;23.380;2023-03-23T07:05:38;21.40;;;16.67;;
6693;SDS011;3384;42.628;23.380;2023-03-23T07:08:05;30.37;;;16.60;;
6693;SDS011;3384;42.628;23.380;2023-03-23T07:10:32;22.33;;;16.53;;
6693;SDS011;3384;42.628;23.380;2023-03-23T07:12:59;25.63;;;17.37;;
6693;SDS011;3384;42.628;23.380;2023-03-23T07:15:25;23.57;;;16.70;;
6693;SDS011;3384;42.628;23.380;2023-03-23T07:17:52;28.80;;;18.10;;
6693;SDS011;3384;42.628;23.380;2023-03-23T07:20:19;30.60;;;18.20;;
6693;SDS011;3384;42.628;23.380;2023-03-23T07:22:46;21.33;;;15.43;;
6693;SDS011;3384;42.628;23.380;2023-03-23T07:25:12;24.33;;;16.80;;
6693;SDS011;3384;42.628;23.380;2023-03-23T07:27:40;31.87;;;19.60;;
6693;SDS011;3384;42.628;23.380;2023-03-23T07:30:07;27.70;;;20.43;;
6693;SDS011;3384;42.628;23.380;2023-03-23T07:32:34;28.03;;;21.70;;
6693;SDS011;3384;42.628;23.380;2023-03-23T07:35:00;27.10;;;18.93;;
6693;SDS011;3384;42.628;23.380;2023-03-23T07:37:27;28.87;;;18.50;;
6693;SDS011;3384;42.628;23.380;2023-03-23T07:39:54;36.17;;;20.80;;
6693;SDS011;3384;42.628;23.380;2023-03-23T07:42:21;28.63;;;20.10;;
6693;SDS011;3384;42.628;23.380;2023-03-23T07:44:49;29.27;;;18.70;;
6693;SDS011;3384;42.628;23.380;2023-03-23T07:47:16;28.83;;;19.60;;
6693;SDS011;3384;42.628;23.380;2023-03-23T07:49:43;37.57;;;20.40;;
6693;SDS011;3384;42.628;23.380;2023-03-23T07:52:10;29.27;;;21.83;;
6693;SDS011;3384;42.628;23.380;2023-03-23T07:54:38;27.00;;;18.83;;
6693;SDS011;3384;42.628;23.380;2023-03-23T07:57:04;24.63;;;18.60;;
6693;SDS011;3384;42.628;23.380;2023-03-23T07:59:31;31.07;;;19.27;;
6693;SDS011;3384;42.628;23.380;2023-03-23T08:01:59;27.17;;;18.83;;
6693;SDS011;3384;42.628;23.380;2023-03-23T08:04:26;26.10;;;18.67;;
6693;SDS011;3384;42.628;23.380;2023-03-23T08:06:52;26.43;;;18.47;;
6693;SDS011;3384;42.628;23.380;2023-03-23T08:09:19;29.03;;;19.10;;
6693;SDS011;3384;42.628;23.380;2023-03-23T08:11:45;29.37;;;19.77;;
6693;SDS011;3384;42.628;23.380;2023-03-23T08:14:13;36.20;;;21.73;;
6693;SDS011;3384;42.628;23.380;2023-03-23T08:16:39;25.87;;;18.90;;
6693;SDS011;3384;42.628;23.380;2023-03-23T08:19:07;26.37;;;18.50;;
6693;SDS011;3384;42.628;23.380;2023-03-23T08:21:34;25.33;;;16.90;;
6693;SDS011;3384;42.628;23.380;2023-03-23T08:24:00;22.27;;;15.83;;
6693;SDS011;3384;42.628;23.380;2023-03-23T08:26:27;20.20;;;14.93;;
6693;SDS011;3384;42.628;23.380;2023-03-23T08:28:53;22.07;;;13.97;;
6693;SDS011;3384;42.628;23.380;2023-03-23T08:31:20;26.27;;;16.03;;
6693;SDS011;3384;42.628;23.380;2023-03-23T08:33:46;16.83;;;13.80;;
6693;SDS011;3384;42.628;23.380;2023-03-23T08:36:14;20.27;;;12.97;;
6693;SDS011;3384;42.628;23.380;2023-03-23T08:38:41;16.80;;;11.47;;
6693;SDS011;3384;42.628;23.380;2023-03-23T08:41:08;12.67;;;11.30;;
6693;SDS011;3384;42.628;23.380;2023-03-23T08:43:35;19.33;;;14.57;;
6693;SDS011;3384;42.628;23.380;2023-03-23T08:46:03;15.10;;;12.63;;
6693;SDS011;3384;42.628;23.380;2023-03-23T08:48:34;12.10;;;10.17;;
6693;SDS011;3384;42.628;23.380;2023-03-23T08:51:01;13.87;;;11.33;;
6693;SDS011;3384;42.628;23.380;2023-03-23T08:53:30;11.20;;;9.10;;
6693;SDS011;3384;42.628;23.380;2023-03-23T08:56:02;13.00;;;10.17;;
6693;SDS011;3384;42.628;23.380;2023-03-23T08:58:28;8.97;;;8.10;;
6693;SDS011;3384;42.628;23.380;2023-03-23T09:00:55;8.47;;;7.73;;
6693;SDS011;3384;42.628;23.380;2023-03-23T09:03:21;7.90;;;7.30;;
6693;SDS011;3384;42.628;23.380;2023-03-23T09:05:48;7.73;;;7.00;;
6693;SDS011;3384;42.628;23.380;2023-03-23T09:08:14;11.00;;;9.00;;
6693;SDS011;3384;42.628;23.380;2023-03-23T09:10:42;11.87;;;9.10;;
6693;SDS011;3384;42.628;23.380;2023-03-23T09:13:09;10.27;;;8.50;;
6693;SDS011;3384;42.628;23.380;2023-03-23T09:15:36;11.23;;;8.00;;
6693;SDS011;3384;42.628;23.380;2023-03-23T09:18:02;8.83;;;7.93;;
6693;SDS011;3384;42.628;23.380;2023-03-23T09:20:29;10.00;;;6.00;;
6693;SDS011;3384;42.628;23.380;2023-03-23T09:22:56;11.40;;;7.03;;
6693;SDS011;3384;42.628;23.380;2023-03-23T09:25:24;8.80;;;8.13;;
6693;SDS011;3384;42.628;23.380;2023-03-23T09:27:53;7.90;;;6.83;;
6693;SDS011;3384;42.628;23.380;2023-03-23T09:30:21;7.20;;;6.70;;
6693;SDS011;3384;42.628;23.380;2023-03-23T09:32:48;7.93;;;7.03;;
6693;SDS011;3384;42.628;23.380;2023-03-23T09:35:14;7.17;;;6.50;;
6693;SDS011;3384;42.628;23.380;2023-03-23T09:37:41;7.53;;;7.03;;
6693;SDS011;3384;42.628;23.380;2023-03-23T09:40:10;8.87;;;7.10;;
6693;SDS011;3384;42.628;23.380;2023-03-23T09:42:45;7.67;;;6.87;;
6693;SDS011;3384;42.628;23.380;2023-03-23T09:45:18;10.50;;;6.37;;
6693;SDS011;3384;42.628;23.380;2023-03-23T09:47:54;6.43;;;5.93;;
6693;SDS011;3384;42.628;23.380;2023-03-23T09:50:22;6.83;;;6.43;;
6693;SDS011;3384;42.628;23.380;2023-03-23T09:52:52;8.40;;;6.13;;
6693;SDS011;3384;42.628;23.380;2023-03-23T09:55:20;8.00;;;7.30;;
6693;SDS011;3384;42.628;23.380;2023-03-23T09:57:54;6.40;;;5.90;;
6693;SDS011;3384;42.628;23.380;2023-03-23T10:00:24;7.30;;;6.70;;
6693;SDS011;3384;42.628;23.380;2023-03-23T10:02:59;5.90;;;5.50;;
6693;SDS011;3384;42.628;23.380;2023-03-23T10:05:30;10.07;;;5.67;;
6693;SDS011;3384;42.628;23.380;2023-03-23T10:07:57;6.43;;;5.67;;
6693;SDS011;3384;42.628;23.380;2023-03-23T10:10:26;13.00;;;5.57;;
6693;SDS011;3384;42.628;23.380;2023-03-23T10:12:56;5.90;;;5.70;;
6693;SDS011;3384;42.628;23.380;2023-03-23T10:15:25;5.60;;;5.30;;
6693;SDS011;3384;42.628;23.380;2023-03-23T10:17:54;8.83;;;5.57;;
6693;SDS011;3384;42.628;23.380;2023-03-23T10:20:29;6.37;;;5.90;;
6693;SDS011;3384;42.628;23.380;2023-03-23T10:22:58;6.43;;;5.93;;
6693;SDS011;3384;42.628;23.380;2023-03-23T10:25:29;7.43;;;6.83;;
6693;SDS011;3384;42.628;23.380;2023-03-23T10:27:58;5.90;;;5.60;;
6693;SDS011;3384;42.628;23.380;2023-03-23T10:30:28;7.00;;;6.43;;
6693;SDS011;3384;42.628;23.380;2023-03-23T10:32:56;5.90;;;5.60;;
6693;SDS011;3384;42.628;23.380;2023-03-23T10:35:25;6.93;;;6.43;;
6693;SDS011;3384;42.628;23.380;2023-03-23T10:37:53;5.10;;;4.90;;
6693;SDS011;3384;42.628;23.380;2023-03-23T10:40:24;6.23;;;5.83;;
6693;SDS011;3384;42.628;23.380;2023-03-23T10:42:52;6.37;;;5.77;;
6693;SDS011;3384;42.628;23.380;2023-03-23T10:45:20;5.70;;;5.30;;
6693;SDS011;3384;42.628;23.380;2023-03-23T10:47:49;4.70;;;4.60;;
6693;SDS011;3384;42.628;23.380;2023-03-23T10:50:18;5.60;;;5.23;;
6693;SDS011;3384;42.628;23.380;2023-03-23T10:52:48;6.17;;;5.50;;
6693;SDS011;3384;42.628;23.380;2023-03-23T10:55:17;5.80;;;5.50;;
6693;SDS011;3384;42.628;23.380;2023-03-23T10:57:45;6.47;;;6.07;;
6693;SDS011;3384;42.628;23.380;2023-03-23T11:00:17;6.40;;;6.10;;
6693;SDS011;3384;42.628;23.380;2023-03-23T11:02:44;7.03;;;6.37;;
6693;SDS011;3384;42.628;23.380;2023-03-23T11:05:18;5.90;;;5.60;;
6693;SDS011;3384;42.628;23.380;2023-03-23T11:07:48;6.20;;;5.90;;
6693;SDS011;3384;42.628;23.380;2023-03-23T11:10:17;10.03;;;6.60;;
6693;SDS011;3384;42.628;23.380;2023-03-23T11:12:46;6.47;;;6.00;;
6693;SDS011;3384;42.628;23.380;2023-03-23T11:15:28;5.67;;;5.27;;
6693;SDS011;3384;42.628;23.380;2023-03-23T11:17:56;5.33;;;5.03;;
6693;SDS011;3384;42.628;23.380;2023-03-23T11:20:25;6.43;;;5.67;;
6693;SDS011;3384;42.628;23.380;2023-03-23T11:22:53;18.20;;;6.03;;
6693;SDS011;3384;42.628;23.380;2023-03-23T11:25:20;6.87;;;6.47;;
6693;SDS011;3384;42.628;23.380;2023-03-23T11:27:47;5.73;;;5.30;;
6693;SDS011;3384;42.628;23.380;2023-03-23T11:30:18;8.00;;;7.30;;
6693;SDS011;3384;42.628;23.380;2023-03-23T11:32:46;8.83;;;6.07;;
6693;SDS011;3384;42.628;23.380;2023-03-23T11:35:15;5.97;;;5.57;;
6693;SDS011;3384;42.628;23.380;2023-03-23T11:37:45;16.13;;;5.83;;
6693;SDS011;3384;42.628;23.380;2023-03-23T11:40:16;6.07;;;5.63;;
6693;SDS011;3384;42.628;23.380;2023-03-23T11:42:44;5.43;;;5.13;;
6693;SDS011;3384;42.628;23.380;2023-03-23T11:45:14;6.17;;;5.60;;
6693;SDS011;3384;42.628;23.380;2023-03-23T11:47:43;5.97;;;5.57;;
6693;SDS011;3384;42.628;23.380;2023-03-23T11:50:13;8.03;;;6.37;;
6693;SDS011;3384;42.628;23.380;2023-03-23T11:52:42;7.23;;;6.47;;
6693;SDS011;3384;42.628;23.380;2023-03-23T11:55:13;5.23;;;4.93;;
6693;SDS011;3384;42.628;23.380;2023-03-23T11:57:41;6.17;;;5.77;;
6693;SDS011;3384;42.628;23.380;2023-03-23T12:00:11;6.87;;;6.47;;
6693;SDS011;3384;42.628;23.380;2023-03-23T12:05:31;5.87;;;5.43;;
6693;SDS011;3384;42.628;23.380;2023-03-23T12:08:02;5.87;;;5.57;;
6693;SDS011;3384;42.628;23.380;2023-03-23T12:10:36;7.20;;;5.50;;
6693;SDS011;3384;42.628;23.380;2023-03-23T12:13:10;6.37;;;6.03;;
6693;SDS011;3384;42.628;23.380;2023-03-23T12:15:42;6.00;;;5.60;;
6693;SDS011;3384;42.628;23.380;2023-03-23T12:18:14;5.00;;;4.60;;
6693;SDS011;3384;42.628;23.380;2023-03-23T12:20:45;5.80;;;5.50;;
6693;SDS011;3384;42.628;23.380;2023-03-23T12:23:18;4.80;;;4.60;;
6693;SDS011;3384;42.628;23.380;2023-03-23T12:25:55;6.20;;;5.63;;
6693;SDS011;3384;42.628;23.380;2023-03-23T12:28:29;6.47;;;5.87;;
6693;SDS011;3384;42.628;23.380;2023-03-23T12:30:59;5.53;;;5.23;;
6693;SDS011;3384;42.628;23.380;2023-03-23T12:33:29;5.83;;;5.53;;
6693;SDS011;3384;42.628;23.380;2023-03-23T12:36:03;6.00;;;5.50;;
6693;SDS011;3384;42.628;23.380;2023-03-23T12:38:35;6.00;;;5.57;;
6693;SDS011;3384;42.628;23.380;2023-03-23T12:41:07;6.07;;;5.67;;
6693;SDS011;3384;42.628;23.380;2023-03-23T12:43:38;6.43;;;6.03;;
6693;SDS011;3384;42.628;23.380;2023-03-23T12:46:09;5.93;;;5.63;;
6693;SDS011;3384;42.628;23.380;2023-03-23T12:48:42;5.07;;;4.80;;
6693;SDS011;3384;42.628;23.380;2023-03-23T12:51:14;5.47;;;5.17;;
6693;SDS011;3384;42.628;23.380;2023-03-23T12:53:43;5.50;;;5.10;;
6693;SDS011;3384;42.628;23.380;2023-03-23T12:56:14;6.50;;;6.10;;
6693;SDS011;3384;42.628;23.380;2023-03-23T12:58:42;6.47;;;5.97;;
6693;SDS011;3384;42.628;23.380;2023-03-23T13:01:11;6.33;;;5.83;;
6693;SDS011;3384;42.628;23.380;2023-03-23T13:03:39;5.47;;;5.17;;
6693;SDS011;3384;42.628;23.380;2023-03-23T13:06:08;6.87;;;6.40;;
6693;SDS011;3384;42.628;23.380;2023-03-23T13:08:39;7.03;;;6.43;;
6693;SDS011;3384;42.628;23.380;2023-03-23T13:11:08;6.63;;;6.23;;
6693;SDS011;3384;42.628;23.380;2023-03-23T13:13:41;9.30;;;6.53;;
6693;SDS011;3384;42.628;23.380;2023-03-23T13:16:10;5.93;;;5.50;;
6693;SDS011;3384;42.628;23.380;2023-03-23T13:18:40;6.27;;;5.77;;
6693;SDS011;3384;42.628;23.380;2023-03-23T13:21:12;5.83;;;5.27;;
6693;SDS011;3384;42.628;23.380;2023-03-23T13:23:41;5.63;;;5.13;;
6693;SDS011;3384;42.628;23.380;2023-03-23T13:26:08;5.23;;;5.13;;
6693;SDS011;3384;42.628;23.380;2023-03-23T13:28:46;7.17;;;6.57;;
6693;SDS011;3384;42.628;23.380;2023-03-23T13:31:13;8.03;;;5.67;;
6693;SDS011;3384;42.628;23.380;2023-03-23T13:33:45;6.43;;;6.03;;
6693;SDS011;3384;42.628;23.380;2023-03-23T13:36:12;6.23;;;5.80;;
6693;SDS011;3384;42.628;23.380;2023-03-23T13:38:44;5.50;;;5.10;;
6693;SDS011;3384;42.628;23.380;2023-03-23T13:41:13;5.20;;;5.00;;
6693;SDS011;3384;42.628;23.380;2023-03-23T13:43:41;12.80;;;6.37;;
6693;SDS011;3384;42.628;23.380;2023-03-23T13:46:11;7.93;;;7.33;;
6693;SDS011;3384;42.628;23.380;2023-03-23T13:48:42;16.73;;;8.60;;
6693;SDS011;3384;42.628;23.380;2023-03-23T13:51:23;5.90;;;5.43;;
6693;SDS011;3384;42.628;23.380;2023-03-23T13:53:50;5.43;;;5.10;;
6693;SDS011;3384;42.628;23.380;2023-03-23T13:56:19;5.70;;;5.27;;
6693;SDS011;3384;42.628;23.380;2023-03-23T13:58:46;6.47;;;4.73;;
6693;SDS011;3384;42.628;23.380;2023-03-23T14:01:16;5.80;;;5.50;;
6693;SDS011;3384;42.628;23.380;2023-03-23T14:03:44;5.77;;;5.40;;
6693;SDS011;3384;42.628;23.380;2023-03-23T14:06:15;7.50;;;5.93;;
6693;SDS011;3384;42.628;23.380;2023-03-23T14:08:43;6.80;;;6.30;;
6693;SDS011;3384;42.628;23.380;2023-03-23T14:11:14;6.50;;;5.90;;
6693;SDS011;3384;42.628;23.380;2023-03-23T14:13:43;6.57;;;5.87;;
6693;SDS011;3384;42.628;23.380;2023-03-23T14:16:16;6.10;;;5.73;;
6693;SDS011;3384;42.628;23.380;2023-03-23T14:18:47;5.70;;;5.27;;
6693;SDS011;3384;42.628;23.380;2023-03-23T14:21:15;5.63;;;5.33;;
6693;SDS011;3384;42.628;23.380;2023-03-23T14:23:42;6.43;;;6.13;;
6693;SDS011;3384;42.628;23.380;2023-03-23T14:26:11;5.77;;;5.33;;
6693;SDS011;3384;42.628;23.380;2023-03-23T14:28:41;5.20;;;4.77;;
6693;SDS011;3384;42.628;23.380;2023-03-23T14:31:14;5.73;;;5.33;;
6693;SDS011;3384;42.628;23.380;2023-03-23T14:33:42;6.53;;;5.57;;
6693;SDS011;3384;42.628;23.380;2023-03-23T14:36:09;5.80;;;5.40;;
6693;SDS011;3384;42.628;23.380;2023-03-23T14:38:35;6.67;;;5.70;;
6693;SDS011;3384;42.628;23.380;2023-03-23T14:41:04;6.60;;;6.10;;
6693;SDS011;3384;42.628;23.380;2023-03-23T14:43:31;6.33;;;5.70;;
6693;SDS011;3384;42.628;23.380;2023-03-23T14:46:00;6.43;;;6.03;;
6693;SDS011;3384;42.628;23.380;2023-03-23T14:48:27;7.00;;;6.40;;
6693;SDS011;3384;42.628;23.380;2023-03-23T14:50:57;6.10;;;5.60;;
6693;SDS011;3384;42.628;23.380;2023-03-23T14:53:25;5.30;;;4.90;;
6693;SDS011;3384;42.628;23.380;2023-03-23T14:55:52;5.93;;;5.60;;
6693;SDS011;3384;42.628;23.380;2023-03-23T14:58:21;7.43;;;5.97;;
6693;SDS011;3384;42.628;23.380;2023-03-23T15:00:49;6.23;;;5.87;;
6693;SDS011;3384;42.628;23.380;2023-03-23T15:03:17;6.73;;;6.33;;
6693;SDS011;3384;42.628;23.380;2023-03-23T15:05:46;8.60;;;5.67;;